sensor_id;sensor_type;location;lat;lon;timestamp;temperature;humidity
62424;DHT22;48463;43.604;3.872;2023-04-25T00:00:26;15.80;99.90
62424;DHT22;48463;43.604;3.872;2023-04-25T00:02:52;15.80;99.90
62424;DHT22;48463;43.604;3.872;2023-04-25T00:05:17;15.80;99.90
62424;DHT22;48463;43.604;3.872;2023-04-25T00:07:44;15.80;99.90
62424;DHT22;48463;43.604;3.872;2023-04-25T00:10:11;15.80;99.90
62424;DHT22;48463;43.604;3.872;2023-04-25T00:12:37;15.80;99.90
62424;DHT22;48463;43.604;3.872;2023-04-25T00:15:04;15.70;99.90
62424;DHT22;48463;43.604;3.872;2023-04-25T00:17:30;15.70;99.90
62424;DHT22;48463;43.604;3.872;2023-04-25T00:19:56;15.70;99.90
62424;DHT22;48463;43.604;3.872;2023-04-25T00:22:23;15.70;99.90
62424;DHT22;48463;43.604;3.872;2023-04-25T00:24:49;15.70;99.90
62424;DHT22;48463;43.604;3.872;2023-04-25T00:27:15;15.70;99.90
62424;DHT22;48463;43.604;3.872;2023-04-25T00:29:41;15.70;99.90
62424;DHT22;48463;43.604;3.872;2023-04-25T00:32:07;15.70;99.90
62424;DHT22;48463;43.604;3.872;2023-04-25T00:34:32;15.70;99.90
62424;DHT22;48463;43.604;3.872;2023-04-25T00:36:58;15.70;99.90
62424;DHT22;48463;43.604;3.872;2023-04-25T00:39:23;15.70;99.90
62424;DHT22;48463;43.604;3.872;2023-04-25T00:41:50;15.70;99.90
62424;DHT22;48463;43.604;3.872;2023-04-25T00:44:18;15.70;99.90
62424;DHT22;48463;43.604;3.872;2023-04-25T00:46:47;15.60;99.90
62424;DHT22;48463;43.604;3.872;2023-04-25T00:49:13;15.70;99.90
62424;DHT22;48463;43.604;3.872;2023-04-25T00:51:41;15.70;99.90
62424;DHT22;48463;43.604;3.872;2023-04-25T00:54:07;15.60;99.90
62424;DHT22;48463;43.604;3.872;2023-04-25T00:56:33;15.60;99.90
62424;DHT22;48463;43.604;3.872;2023-04-25T00:58:58;15.60;99.90
62424;DHT22;48463;43.604;3.872;2023-04-25T01:01:24;15.60;99.90
62424;DHT22;48463;43.604;3.872;2023-04-25T01:03:50;15.60;99.90
62424;DHT22;48463;43.604;3.872;2023-04-25T01:06:17;15.70;99.90
62424;DHT22;48463;43.604;3.872;2023-04-25T01:08:42;15.60;99.90
62424;DHT22;48463;43.604;3.872;2023-04-25T01:11:08;15.60;99.90
62424;DHT22;48463;43.604;3.872;2023-04-25T01:13:34;15.60;99.90
62424;DHT22;48463;43.604;3.872;2023-04-25T01:16:02;15.50;99.90
62424;DHT22;48463;43.604;3.872;2023-04-25T01:18:28;15.50;99.90
62424;DHT22;48463;43.604;3.872;2023-04-25T01:20:54;15.50;99.90
62424;DHT22;48463;43.604;3.872;2023-04-25T01:23:22;15.50;99.90
62424;DHT22;48463;43.604;3.872;2023-04-25T01:25:48;15.50;99.90
62424;DHT22;48463;43.604;3.872;2023-04-25T01:28:14;15.50;99.90
62424;DHT22;48463;43.604;3.872;2023-04-25T01:30:41;15.50;99.90
62424;DHT22;48463;43.604;3.872;2023-04-25T01:33:08;15.50;99.90
62424;DHT22;48463;43.604;3.872;2023-04-25T01:35:34;15.40;99.90
62424;DHT22;48463;43.604;3.872;2023-04-25T01:38:00;15.40;99.90
62424;DHT22;48463;43.604;3.872;2023-04-25T01:40:27;15.50;99.90
62424;DHT22;48463;43.604;3.872;2023-04-25T01:42:54;15.50;99.90
62424;DHT22;48463;43.604;3.872;2023-04-25T01:45:20;15.40;99.90
62424;DHT22;48463;43.604;3.872;2023-04-25T01:47:46;15.40;99.90
62424;DHT22;48463;43.604;3.872;2023-04-25T01:50:16;15.40;99.90
62424;DHT22;48463;43.604;3.872;2023-04-25T01:52:42;15.20;99.90
62424;DHT22;48463;43.604;3.872;2023-04-25T01:55:09;15.30;99.90
62424;DHT22;48463;43.604;3.872;2023-04-25T01:57:34;15.40;99.90
62424;DHT22;48463;43.604;3.872;2023-04-25T02:00:04;15.40;99.90
62424;DHT22;48463;43.604;3.872;2023-04-25T02:02:32;15.30;99.90
62424;DHT22;48463;43.604;3.872;2023-04-25T02:04:58;15.40;99.90
62424;DHT22;48463;43.604;3.872;2023-04-25T02:07:23;15.30;99.90
62424;DHT22;48463;43.604;3.872;2023-04-25T02:09:49;15.30;99.90
62424;DHT22;48463;43.604;3.872;2023-04-25T02:12:14;15.30;99.90
62424;DHT22;48463;43.604;3.872;2023-04-25T02:14:40;15.20;99.90
62424;DHT22;48463;43.604;3.872;2023-04-25T02:17:06;15.20;99.90
62424;DHT22;48463;43.604;3.872;2023-04-25T02:19:32;15.20;99.90
62424;DHT22;48463;43.604;3.872;2023-04-25T02:21:57;15.10;99.90
62424;DHT22;48463;43.604;3.872;2023-04-25T02:24:23;15.10;99.90
62424;DHT22;48463;43.604;3.872;2023-04-25T02:26:49;15.20;99.90
62424;DHT22;48463;43.604;3.872;2023-04-25T02:29:15;15.20;99.90
62424;DHT22;48463;43.604;3.872;2023-04-25T02:31:41;15.10;99.90
62424;DHT22;48463;43.604;3.872;2023-04-25T02:34:06;15.20;99.90
62424;DHT22;48463;43.604;3.872;2023-04-25T02:36:32;15.10;99.90
62424;DHT22;48463;43.604;3.872;2023-04-25T02:39:00;15.00;99.90
62424;DHT22;48463;43.604;3.872;2023-04-25T02:41:26;15.00;99.90
62424;DHT22;48463;43.604;3.872;2023-04-25T02:43:52;15.00;99.90
62424;DHT22;48463;43.604;3.872;2023-04-25T02:46:17;15.00;99.90
62424;DHT22;48463;43.604;3.872;2023-04-25T02:48:43;15.00;99.90
62424;DHT22;48463;43.604;3.872;2023-04-25T02:51:09;15.00;99.90
62424;DHT22;48463;43.604;3.872;2023-04-25T02:53:34;14.90;99.90
62424;DHT22;48463;43.604;3.872;2023-04-25T02:56:00;14.90;99.90
62424;DHT22;48463;43.604;3.872;2023-04-25T02:58:26;14.90;99.90
62424;DHT22;48463;43.604;3.872;2023-04-25T03:00:52;14.90;99.90
62424;DHT22;48463;43.604;3.872;2023-04-25T03:03:17;14.90;99.90
62424;DHT22;48463;43.604;3.872;2023-04-25T03:05:43;14.90;99.90
62424;DHT22;48463;43.604;3.872;2023-04-25T03:08:09;14.90;99.90
62424;DHT22;48463;43.604;3.872;2023-04-25T03:10:35;14.90;99.90
62424;DHT22;48463;43.604;3.872;2023-04-25T03:13:01;15.00;99.90
62424;DHT22;48463;43.604;3.872;2023-04-25T03:15:26;14.90;99.90
62424;DHT22;48463;43.604;3.872;2023-04-25T03:17:52;15.00;99.90
62424;DHT22;48463;43.604;3.872;2023-04-25T03:20:18;15.00;99.90
62424;DHT22;48463;43.604;3.872;2023-04-25T03:22:43;15.00;99.90
62424;DHT22;48463;43.604;3.872;2023-04-25T03:25:09;15.00;99.90
62424;DHT22;48463;43.604;3.872;2023-04-25T03:27:35;15.00;99.90
62424;DHT22;48463;43.604;3.872;2023-04-25T03:30:01;14.90;99.90
62424;DHT22;48463;43.604;3.872;2023-04-25T03:32:26;14.90;99.90
62424;DHT22;48463;43.604;3.872;2023-04-25T03:34:52;14.90;99.90
62424;DHT22;48463;43.604;3.872;2023-04-25T03:37:18;14.80;99.90
62424;DHT22;48463;43.604;3.872;2023-04-25T03:39:43;14.90;99.90
62424;DHT22;48463;43.604;3.872;2023-04-25T03:42:09;14.80;99.90
62424;DHT22;48463;43.604;3.872;2023-04-25T03:44:34;14.80;99.90
62424;DHT22;48463;43.604;3.872;2023-04-25T03:47:00;14.70;99.90
62424;DHT22;48463;43.604;3.872;2023-04-25T03:49:26;14.70;99.90
62424;DHT22;48463;43.604;3.872;2023-04-25T03:51:51;14.60;99.90
62424;DHT22;48463;43.604;3.872;2023-04-25T03:54:17;14.70;99.90
62424;DHT22;48463;43.604;3.872;2023-04-25T03:56:42;14.70;99.90
62424;DHT22;48463;43.604;3.872;2023-04-25T03:59:08;14.60;99.90
62424;DHT22;48463;43.604;3.872;2023-04-25T04:01:34;14.60;99.90
62424;DHT22;48463;43.604;3.872;2023-04-25T04:03:59;14.70;99.90
62424;DHT22;48463;43.604;3.872;2023-04-25T04:06:25;14.70;99.90
62424;DHT22;48463;43.604;3.872;2023-04-25T04:08:51;14.70;99.90
62424;DHT22;48463;43.604;3.872;2023-04-25T04:11:16;14.70;99.90
62424;DHT22;48463;43.604;3.872;2023-04-25T04:13:42;14.70;99.90
62424;DHT22;48463;43.604;3.872;2023-04-25T04:16:08;14.70;99.90
62424;DHT22;48463;43.604;3.872;2023-04-25T04:18:33;14.70;99.90
62424;DHT22;48463;43.604;3.872;2023-04-25T04:20:59;14.60;99.90
62424;DHT22;48463;43.604;3.872;2023-04-25T04:23:25;14.70;99.90
62424;DHT22;48463;43.604;3.872;2023-04-25T04:25:52;14.70;99.90
62424;DHT22;48463;43.604;3.872;2023-04-25T04:28:19;14.70;99.90
62424;DHT22;48463;43.604;3.872;2023-04-25T04:30:45;14.70;99.90
62424;DHT22;48463;43.604;3.872;2023-04-25T04:33:11;14.60;99.90
62424;DHT22;48463;43.604;3.872;2023-04-25T04:35:37;14.60;99.90
62424;DHT22;48463;43.604;3.872;2023-04-25T04:38:03;14.50;99.90
62424;DHT22;48463;43.604;3.872;2023-04-25T04:40:29;14.50;99.90
62424;DHT22;48463;43.604;3.872;2023-04-25T04:42:56;14.50;99.90
62424;DHT22;48463;43.604;3.872;2023-04-25T04:45:23;14.50;99.90
62424;DHT22;48463;43.604;3.872;2023-04-25T04:47:49;14.60;99.90
62424;DHT22;48463;43.604;3.872;2023-04-25T04:50:15;14.50;99.90
62424;DHT22;48463;43.604;3.872;2023-04-25T04:52:42;14.50;99.90
62424;DHT22;48463;43.604;3.872;2023-04-25T04:55:08;14.50;99.90
62424;DHT22;48463;43.604;3.872;2023-04-25T04:57:34;14.50;99.90
62424;DHT22;48463;43.604;3.872;2023-04-25T05:00:00;14.50;99.90
62424;DHT22;48463;43.604;3.872;2023-04-25T05:02:26;14.60;99.90
62424;DHT22;48463;43.604;3.872;2023-04-25T05:04:52;14.60;99.90
62424;DHT22;48463;43.604;3.872;2023-04-25T05:07:18;14.60;99.90
62424;DHT22;48463;43.604;3.872;2023-04-25T05:09:44;14.60;99.90
62424;DHT22;48463;43.604;3.872;2023-04-25T05:12:10;14.60;99.90
62424;DHT22;48463;43.604;3.872;2023-04-25T05:14:36;14.70;99.90
62424;DHT22;48463;43.604;3.872;2023-04-25T05:17:01;14.70;99.90
62424;DHT22;48463;43.604;3.872;2023-04-25T05:19:30;14.60;99.90
62424;DHT22;48463;43.604;3.872;2023-04-25T05:21:55;14.60;99.90
62424;DHT22;48463;43.604;3.872;2023-04-25T05:24:21;14.60;99.90
62424;DHT22;48463;43.604;3.872;2023-04-25T05:26:47;14.50;99.90
62424;DHT22;48463;43.604;3.872;2023-04-25T05:29:12;14.50;99.90
62424;DHT22;48463;43.604;3.872;2023-04-25T05:31:38;14.50;99.90
62424;DHT22;48463;43.604;3.872;2023-04-25T05:34:04;14.50;99.90
62424;DHT22;48463;43.604;3.872;2023-04-25T05:36:29;14.50;99.90
62424;DHT22;48463;43.604;3.872;2023-04-25T05:38:56;14.60;99.90
62424;DHT22;48463;43.604;3.872;2023-04-25T05:41:21;14.60;99.90
62424;DHT22;48463;43.604;3.872;2023-04-25T05:43:47;14.70;99.90
62424;DHT22;48463;43.604;3.872;2023-04-25T05:46:15;14.70;99.90
62424;DHT22;48463;43.604;3.872;2023-04-25T05:48:42;14.70;99.90
62424;DHT22;48463;43.604;3.872;2023-04-25T05:51:08;14.70;99.90
62424;DHT22;48463;43.604;3.872;2023-04-25T05:53:34;14.60;99.90
62424;DHT22;48463;43.604;3.872;2023-04-25T05:56:00;14.70;99.90
62424;DHT22;48463;43.604;3.872;2023-04-25T05:58:26;14.80;99.90
62424;DHT22;48463;43.604;3.872;2023-04-25T06:00:52;14.80;99.90
62424;DHT22;48463;43.604;3.872;2023-04-25T06:03:17;14.80;99.90
62424;DHT22;48463;43.604;3.872;2023-04-25T06:05:43;14.90;99.90
62424;DHT22;48463;43.604;3.872;2023-04-25T06:08:09;14.80;99.90
62424;DHT22;48463;43.604;3.872;2023-04-25T06:10:36;14.80;99.90
62424;DHT22;48463;43.604;3.872;2023-04-25T06:13:02;14.70;99.90
62424;DHT22;48463;43.604;3.872;2023-04-25T06:15:28;14.90;99.90
62424;DHT22;48463;43.604;3.872;2023-04-25T06:17:53;14.90;99.90
62424;DHT22;48463;43.604;3.872;2023-04-25T06:20:19;14.90;99.90
62424;DHT22;48463;43.604;3.872;2023-04-25T06:22:49;15.00;99.90
62424;DHT22;48463;43.604;3.872;2023-04-25T06:25:15;15.20;99.90
62424;DHT22;48463;43.604;3.872;2023-04-25T06:27:41;15.10;99.90
62424;DHT22;48463;43.604;3.872;2023-04-25T06:30:07;15.00;99.90
62424;DHT22;48463;43.604;3.872;2023-04-25T06:32:32;15.20;99.90
62424;DHT22;48463;43.604;3.872;2023-04-25T06:35:00;15.20;99.90
62424;DHT22;48463;43.604;3.872;2023-04-25T06:37:27;15.10;99.90
62424;DHT22;48463;43.604;3.872;2023-04-25T06:39:53;15.10;99.90
62424;DHT22;48463;43.604;3.872;2023-04-25T06:42:19;15.20;99.90
62424;DHT22;48463;43.604;3.872;2023-04-25T06:44:44;15.20;99.90
62424;DHT22;48463;43.604;3.872;2023-04-25T06:47:10;15.20;99.90
62424;DHT22;48463;43.604;3.872;2023-04-25T06:49:36;15.30;99.90
62424;DHT22;48463;43.604;3.872;2023-04-25T06:52:02;15.40;99.90
62424;DHT22;48463;43.604;3.872;2023-04-25T06:54:28;15.50;99.90
62424;DHT22;48463;43.604;3.872;2023-04-25T06:56:55;15.60;99.90
62424;DHT22;48463;43.604;3.872;2023-04-25T06:59:21;15.60;99.90
62424;DHT22;48463;43.604;3.872;2023-04-25T07:01:47;15.60;99.90
62424;DHT22;48463;43.604;3.872;2023-04-25T07:04:12;15.60;99.90
62424;DHT22;48463;43.604;3.872;2023-04-25T07:06:38;15.50;99.90
62424;DHT22;48463;43.604;3.872;2023-04-25T07:09:11;15.70;99.90
62424;DHT22;48463;43.604;3.872;2023-04-25T07:11:36;15.50;99.90
62424;DHT22;48463;43.604;3.872;2023-04-25T07:14:03;15.50;99.90
62424;DHT22;48463;43.604;3.872;2023-04-25T07:16:28;15.60;99.90
62424;DHT22;48463;43.604;3.872;2023-04-25T07:18:54;15.60;99.90
62424;DHT22;48463;43.604;3.872;2023-04-25T07:21:20;15.50;99.90
62424;DHT22;48463;43.604;3.872;2023-04-25T07:23:46;15.60;99.90
62424;DHT22;48463;43.604;3.872;2023-04-25T07:26:12;15.70;99.90
62424;DHT22;48463;43.604;3.872;2023-04-25T07:28:38;15.80;99.90
62424;DHT22;48463;43.604;3.872;2023-04-25T07:31:03;15.70;99.90
62424;DHT22;48463;43.604;3.872;2023-04-25T07:33:29;15.90;99.90
62424;DHT22;48463;43.604;3.872;2023-04-25T07:35:55;15.90;99.90
62424;DHT22;48463;43.604;3.872;2023-04-25T07:38:21;15.90;99.90
62424;DHT22;48463;43.604;3.872;2023-04-25T07:40:48;15.90;99.90
62424;DHT22;48463;43.604;3.872;2023-04-25T07:43:14;16.10;99.90
62424;DHT22;48463;43.604;3.872;2023-04-25T07:45:43;16.00;99.90
62424;DHT22;48463;43.604;3.872;2023-04-25T07:48:08;16.00;99.90
62424;DHT22;48463;43.604;3.872;2023-04-25T07:50:34;16.00;99.90
62424;DHT22;48463;43.604;3.872;2023-04-25T07:53:00;15.90;99.90
62424;DHT22;48463;43.604;3.872;2023-04-25T07:55:25;16.00;99.90
62424;DHT22;48463;43.604;3.872;2023-04-25T07:57:51;15.90;99.90
62424;DHT22;48463;43.604;3.872;2023-04-25T08:00:19;15.90;99.90
62424;DHT22;48463;43.604;3.872;2023-04-25T08:02:48;15.90;99.90
62424;DHT22;48463;43.604;3.872;2023-04-25T08:05:16;16.10;99.90
62424;DHT22;48463;43.604;3.872;2023-04-25T08:07:42;16.20;99.90
62424;DHT22;48463;43.604;3.872;2023-04-25T08:10:09;16.20;99.90
62424;DHT22;48463;43.604;3.872;2023-04-25T08:12:35;16.10;99.90
62424;DHT22;48463;43.604;3.872;2023-04-25T08:15:01;16.20;99.90
62424;DHT22;48463;43.604;3.872;2023-04-25T08:17:26;16.10;99.90
62424;DHT22;48463;43.604;3.872;2023-04-25T08:19:52;16.20;99.90
62424;DHT22;48463;43.604;3.872;2023-04-25T08:22:18;16.60;99.90
62424;DHT22;48463;43.604;3.872;2023-04-25T08:24:44;16.90;99.90
62424;DHT22;48463;43.604;3.872;2023-04-25T08:27:10;16.90;99.90
62424;DHT22;48463;43.604;3.872;2023-04-25T08:29:36;16.70;99.90
62424;DHT22;48463;43.604;3.872;2023-04-25T08:32:02;16.70;99.90
62424;DHT22;48463;43.604;3.872;2023-04-25T08:34:28;16.90;99.90
62424;DHT22;48463;43.604;3.872;2023-04-25T08:36:55;17.10;99.90
62424;DHT22;48463;43.604;3.872;2023-04-25T08:39:22;17.20;99.90
62424;DHT22;48463;43.604;3.872;2023-04-25T08:41:47;17.10;99.90
62424;DHT22;48463;43.604;3.872;2023-04-25T08:44:14;17.10;99.90
62424;DHT22;48463;43.604;3.872;2023-04-25T08:46:40;17.00;99.90
62424;DHT22;48463;43.604;3.872;2023-04-25T08:49:07;16.90;99.90
62424;DHT22;48463;43.604;3.872;2023-04-25T08:51:36;17.10;99.90
62424;DHT22;48463;43.604;3.872;2023-04-25T08:54:09;17.00;99.90
62424;DHT22;48463;43.604;3.872;2023-04-25T08:56:37;17.10;99.90
62424;DHT22;48463;43.604;3.872;2023-04-25T08:59:03;17.10;99.90
62424;DHT22;48463;43.604;3.872;2023-04-25T09:01:30;17.30;99.90
62424;DHT22;48463;43.604;3.872;2023-04-25T09:03:57;17.20;99.90
62424;DHT22;48463;43.604;3.872;2023-04-25T09:06:23;17.10;99.90
62424;DHT22;48463;43.604;3.872;2023-04-25T09:08:50;16.80;99.90
62424;DHT22;48463;43.604;3.872;2023-04-25T09:11:15;17.00;99.90
62424;DHT22;48463;43.604;3.872;2023-04-25T09:13:41;17.30;99.90
62424;DHT22;48463;43.604;3.872;2023-04-25T09:16:07;17.40;99.90
62424;DHT22;48463;43.604;3.872;2023-04-25T09:18:34;17.40;99.90
62424;DHT22;48463;43.604;3.872;2023-04-25T09:21:07;17.90;99.90
62424;DHT22;48463;43.604;3.872;2023-04-25T09:23:49;17.70;99.90
62424;DHT22;48463;43.604;3.872;2023-04-25T09:26:20;17.70;99.90
62424;DHT22;48463;43.604;3.872;2023-04-25T09:28:46;17.80;99.90
62424;DHT22;48463;43.604;3.872;2023-04-25T09:31:22;18.00;99.90
62424;DHT22;48463;43.604;3.872;2023-04-25T09:33:49;18.10;99.90
62424;DHT22;48463;43.604;3.872;2023-04-25T09:36:15;18.10;99.90
62424;DHT22;48463;43.604;3.872;2023-04-25T09:38:45;18.00;99.90
62424;DHT22;48463;43.604;3.872;2023-04-25T09:41:11;18.10;99.90
62424;DHT22;48463;43.604;3.872;2023-04-25T09:43:37;18.20;99.90
62424;DHT22;48463;43.604;3.872;2023-04-25T09:46:09;18.10;99.90
62424;DHT22;48463;43.604;3.872;2023-04-25T09:48:36;18.10;99.90
62424;DHT22;48463;43.604;3.872;2023-04-25T09:51:10;18.00;99.90
62424;DHT22;48463;43.604;3.872;2023-04-25T09:53:44;18.20;99.90
62424;DHT22;48463;43.604;3.872;2023-04-25T09:56:12;18.40;99.90
62424;DHT22;48463;43.604;3.872;2023-04-25T09:58:39;18.50;99.90
62424;DHT22;48463;43.604;3.872;2023-04-25T10:01:14;18.50;99.90
62424;DHT22;48463;43.604;3.872;2023-04-25T10:03:43;18.60;99.90
62424;DHT22;48463;43.604;3.872;2023-04-25T10:06:12;18.80;99.80
62424;DHT22;48463;43.604;3.872;2023-04-25T10:08:40;18.50;99.70
62424;DHT22;48463;43.604;3.872;2023-04-25T10:11:08;18.70;99.90
62424;DHT22;48463;43.604;3.872;2023-04-25T10:13:34;18.80;99.90
62424;DHT22;48463;43.604;3.872;2023-04-25T10:16:02;18.70;99.90
62424;DHT22;48463;43.604;3.872;2023-04-25T10:18:29;18.90;99.90
62424;DHT22;48463;43.604;3.872;2023-04-25T10:21:04;19.00;99.60
62424;DHT22;48463;43.604;3.872;2023-04-25T10:23:31;19.10;99.90
62424;DHT22;48463;43.604;3.872;2023-04-25T10:25:58;19.20;99.90
62424;DHT22;48463;43.604;3.872;2023-04-25T10:28:25;19.30;99.70
62424;DHT22;48463;43.604;3.872;2023-04-25T10:31:00;19.30;99.80
62424;DHT22;48463;43.604;3.872;2023-04-25T10:33:40;19.50;99.40
62424;DHT22;48463;43.604;3.872;2023-04-25T10:36:18;19.10;99.20
62424;DHT22;48463;43.604;3.872;2023-04-25T10:38:45;19.40;99.30
62424;DHT22;48463;43.604;3.872;2023-04-25T10:41:12;19.40;99.50
62424;DHT22;48463;43.604;3.872;2023-04-25T10:43:45;19.60;99.20
62424;DHT22;48463;43.604;3.872;2023-04-25T10:46:30;19.80;98.90
62424;DHT22;48463;43.604;3.872;2023-04-25T10:49:02;20.10;98.50
62424;DHT22;48463;43.604;3.872;2023-04-25T10:51:32;20.00;98.00
62424;DHT22;48463;43.604;3.872;2023-04-25T10:56:36;20.20;98.10
62424;DHT22;48463;43.604;3.872;2023-04-25T10:59:17;20.20;97.80
62424;DHT22;48463;43.604;3.872;2023-04-25T11:01:45;20.40;97.90
62424;DHT22;48463;43.604;3.872;2023-04-25T11:09:24;20.40;97.60
62424;DHT22;48463;43.604;3.872;2023-04-25T11:11:54;20.30;97.40
62424;DHT22;48463;43.604;3.872;2023-04-25T11:14:21;20.30;97.50
62424;DHT22;48463;43.604;3.872;2023-04-25T11:16:47;20.20;97.40
62424;DHT22;48463;43.604;3.872;2023-04-25T11:19:13;20.20;97.20
62424;DHT22;48463;43.604;3.872;2023-04-25T11:21:39;20.10;97.10
62424;DHT22;48463;43.604;3.872;2023-04-25T11:24:05;20.20;97.20
62424;DHT22;48463;43.604;3.872;2023-04-25T11:26:33;20.30;97.20
62424;DHT22;48463;43.604;3.872;2023-04-25T11:28:59;20.50;97.10
62424;DHT22;48463;43.604;3.872;2023-04-25T11:31:25;20.80;96.60
62424;DHT22;48463;43.604;3.872;2023-04-25T11:33:53;20.50;96.40
62424;DHT22;48463;43.604;3.872;2023-04-25T11:36:20;20.40;96.60
62424;DHT22;48463;43.604;3.872;2023-04-25T11:38:47;20.50;96.40
62424;DHT22;48463;43.604;3.872;2023-04-25T11:41:13;21.00;95.90
62424;DHT22;48463;43.604;3.872;2023-04-25T11:43:38;21.20;95.40
62424;DHT22;48463;43.604;3.872;2023-04-25T11:46:07;21.30;95.10
62424;DHT22;48463;43.604;3.872;2023-04-25T11:48:40;20.90;95.10
62424;DHT22;48463;43.604;3.872;2023-04-25T11:51:07;20.90;95.20
62424;DHT22;48463;43.604;3.872;2023-04-25T11:53:33;20.80;95.10
62424;DHT22;48463;43.604;3.872;2023-04-25T11:55:59;21.00;95.00
62424;DHT22;48463;43.604;3.872;2023-04-25T11:58:25;20.90;95.20
62424;DHT22;48463;43.604;3.872;2023-04-25T12:00:51;20.90;94.80
62424;DHT22;48463;43.604;3.872;2023-04-25T12:03:20;20.90;94.70
62424;DHT22;48463;43.604;3.872;2023-04-25T12:05:50;20.80;94.60
62424;DHT22;48463;43.604;3.872;2023-04-25T12:08:16;20.80;94.50
62424;DHT22;48463;43.604;3.872;2023-04-25T12:10:45;21.00;94.70
62424;DHT22;48463;43.604;3.872;2023-04-25T12:13:22;21.20;94.70
62424;DHT22;48463;43.604;3.872;2023-04-25T12:15:48;21.30;94.80
62424;DHT22;48463;43.604;3.872;2023-04-25T12:18:14;21.30;95.00
62424;DHT22;48463;43.604;3.872;2023-04-25T12:20:41;21.60;94.50
62424;DHT22;48463;43.604;3.872;2023-04-25T12:23:07;21.70;92.30
62424;DHT22;48463;43.604;3.872;2023-04-25T12:25:43;21.80;92.60
62424;DHT22;48463;43.604;3.872;2023-04-25T12:28:20;21.90;88.10
62424;DHT22;48463;43.604;3.872;2023-04-25T12:31:04;22.00;85.30
62424;DHT22;48463;43.604;3.872;2023-04-25T12:33:39;21.60;89.80
62424;DHT22;48463;43.604;3.872;2023-04-25T12:36:09;21.40;92.80
62424;DHT22;48463;43.604;3.872;2023-04-25T12:38:43;21.10;93.50
62424;DHT22;48463;43.604;3.872;2023-04-25T12:41:09;21.10;93.30
62424;DHT22;48463;43.604;3.872;2023-04-25T12:43:35;21.10;93.70
62424;DHT22;48463;43.604;3.872;2023-04-25T12:46:03;21.50;93.40
62424;DHT22;48463;43.604;3.872;2023-04-25T12:48:32;21.70;93.30
62424;DHT22;48463;43.604;3.872;2023-04-25T12:50:58;21.80;93.60
62424;DHT22;48463;43.604;3.872;2023-04-25T12:53:24;21.70;93.30
62424;DHT22;48463;43.604;3.872;2023-04-25T12:55:50;21.80;93.40
62424;DHT22;48463;43.604;3.872;2023-04-25T12:58:18;21.80;93.50
62424;DHT22;48463;43.604;3.872;2023-04-25T13:00:44;21.80;93.40
62424;DHT22;48463;43.604;3.872;2023-04-25T13:03:10;22.10;91.50
62424;DHT22;48463;43.604;3.872;2023-04-25T13:05:37;22.10;87.50
62424;DHT22;48463;43.604;3.872;2023-04-25T13:08:03;22.30;84.10
62424;DHT22;48463;43.604;3.872;2023-04-25T13:10:29;22.40;82.20
62424;DHT22;48463;43.604;3.872;2023-04-25T13:12:55;22.70;81.60
62424;DHT22;48463;43.604;3.872;2023-04-25T13:15:21;22.70;79.70
62424;DHT22;48463;43.604;3.872;2023-04-25T13:17:47;22.80;78.20
62424;DHT22;48463;43.604;3.872;2023-04-25T13:20:13;23.30;78.50
62424;DHT22;48463;43.604;3.872;2023-04-25T13:22:40;23.40;76.10
62424;DHT22;48463;43.604;3.872;2023-04-25T13:25:07;23.20;76.50
62424;DHT22;48463;43.604;3.872;2023-04-25T13:27:34;23.30;74.70
62424;DHT22;48463;43.604;3.872;2023-04-25T13:30:03;23.70;74.90
62424;DHT22;48463;43.604;3.872;2023-04-25T13:32:36;23.60;70.40
62424;DHT22;48463;43.604;3.872;2023-04-25T13:35:04;23.90;69.40
62424;DHT22;48463;43.604;3.872;2023-04-25T13:37:30;23.70;68.70
62424;DHT22;48463;43.604;3.872;2023-04-25T13:39:59;23.30;65.60
62424;DHT22;48463;43.604;3.872;2023-04-25T13:42:29;23.80;66.10
62424;DHT22;48463;43.604;3.872;2023-04-25T13:44:59;24.00;65.60
62424;DHT22;48463;43.604;3.872;2023-04-25T13:47:34;24.10;64.90
62424;DHT22;48463;43.604;3.872;2023-04-25T13:50:00;24.10;64.70
62424;DHT22;48463;43.604;3.872;2023-04-25T13:52:28;24.20;64.30
62424;DHT22;48463;43.604;3.872;2023-04-25T13:54:54;24.00;63.20
62424;DHT22;48463;43.604;3.872;2023-04-25T13:57:20;24.10;61.70
62424;DHT22;48463;43.604;3.872;2023-04-25T13:59:46;23.90;61.30
62424;DHT22;48463;43.604;3.872;2023-04-25T14:02:12;23.80;61.10
62424;DHT22;48463;43.604;3.872;2023-04-25T14:04:38;23.80;61.40
62424;DHT22;48463;43.604;3.872;2023-04-25T14:07:04;23.40;59.10
62424;DHT22;48463;43.604;3.872;2023-04-25T14:09:30;23.10;58.10
62424;DHT22;48463;43.604;3.872;2023-04-25T14:11:56;23.00;59.30
62424;DHT22;48463;43.604;3.872;2023-04-25T14:14:22;23.10;58.60
62424;DHT22;48463;43.604;3.872;2023-04-25T14:16:49;22.90;58.60
62424;DHT22;48463;43.604;3.872;2023-04-25T14:19:19;22.80;58.80
62424;DHT22;48463;43.604;3.872;2023-04-25T14:21:44;22.60;59.00
62424;DHT22;48463;43.604;3.872;2023-04-25T14:24:11;22.80;60.10
62424;DHT22;48463;43.604;3.872;2023-04-25T14:26:38;22.60;58.90
62424;DHT22;48463;43.604;3.872;2023-04-25T14:29:05;22.60;58.60
62424;DHT22;48463;43.604;3.872;2023-04-25T14:31:34;22.50;58.60
62424;DHT22;48463;43.604;3.872;2023-04-25T14:34:00;22.50;57.90
62424;DHT22;48463;43.604;3.872;2023-04-25T14:36:27;22.30;59.00
62424;DHT22;48463;43.604;3.872;2023-04-25T14:38:53;22.30;59.40
62424;DHT22;48463;43.604;3.872;2023-04-25T14:41:18;22.30;60.10
62424;DHT22;48463;43.604;3.872;2023-04-25T14:43:44;22.20;60.90
62424;DHT22;48463;43.604;3.872;2023-04-25T14:46:10;22.20;59.20
62424;DHT22;48463;43.604;3.872;2023-04-25T14:48:36;22.20;59.10
62424;DHT22;48463;43.604;3.872;2023-04-25T14:51:02;22.10;59.50
62424;DHT22;48463;43.604;3.872;2023-04-25T14:53:28;22.10;59.00
62424;DHT22;48463;43.604;3.872;2023-04-25T14:55:54;22.00;59.60
62424;DHT22;48463;43.604;3.872;2023-04-25T14:58:19;21.90;59.70
62424;DHT22;48463;43.604;3.872;2023-04-25T15:00:46;21.70;59.70
62424;DHT22;48463;43.604;3.872;2023-04-25T15:03:12;21.70;59.30
62424;DHT22;48463;43.604;3.872;2023-04-25T15:05:39;21.60;58.90
62424;DHT22;48463;43.604;3.872;2023-04-25T15:08:05;21.50;59.10
62424;DHT22;48463;43.604;3.872;2023-04-25T15:10:31;21.50;58.60
62424;DHT22;48463;43.604;3.872;2023-04-25T15:12:56;21.50;58.70
62424;DHT22;48463;43.604;3.872;2023-04-25T15:15:22;21.50;58.70
62424;DHT22;48463;43.604;3.872;2023-04-25T15:17:49;21.40;58.90
62424;DHT22;48463;43.604;3.872;2023-04-25T15:20:15;21.40;58.70
62424;DHT22;48463;43.604;3.872;2023-04-25T15:22:41;21.20;58.70
62424;DHT22;48463;43.604;3.872;2023-04-25T15:25:08;21.10;58.90
62424;DHT22;48463;43.604;3.872;2023-04-25T15:27:35;21.00;58.90
62424;DHT22;48463;43.604;3.872;2023-04-25T15:30:07;21.00;58.90
62424;DHT22;48463;43.604;3.872;2023-04-25T15:32:33;21.00;58.20
62424;DHT22;48463;43.604;3.872;2023-04-25T15:35:03;20.90;57.10